DTCCM DAAV-DTTX
Flight info
| Callsign | DTCCM |
|---|---|
| Flight time | N/A |
| Altitude | 39000 |
| Route | CSO DCT TBS DCT BAN DCT SFX |
| Aircraft | E35L/M-SDFGIRWXY/SB1 |
Departure
| Time | N/A |
|---|---|
| Airport | Jijel Ferhat Abbas Airport (DAAV) |
Arrival
| Time | 2026-04-19 17:07 |
|---|---|
| Airport | Sfax Thyna International Airport (DTTX) |
| Time | Latitude | Longitude | Altitude | Speed | Heading |
|---|---|---|---|---|---|
| 2026-04-19 17:01 | 34.74617 | 10.39444 | 5996 ft | 264 kts | 94° |
| 2026-04-19 17:01 | 34.74433 | 10.41274 | 5460 ft | 261 kts | 94° |
| 2026-04-19 17:02 | 34.74208 | 10.43508 | 4607 ft | 270 kts | 94° |
| 2026-04-19 17:02 | 34.73984 | 10.45707 | 4143 ft | 261 kts | 94° |
| 2026-04-19 17:02 | 34.73762 | 10.47899 | 3626 ft | 256 kts | 94° |
| 2026-04-19 17:02 | 34.73553 | 10.50018 | 3058 ft | 255 kts | 94° |
| 2026-04-19 17:03 | 34.73432 | 10.52131 | 2724 ft | 242 kts | 90° |
| 2026-04-19 17:03 | 34.73460 | 10.54098 | 2497 ft | 225 kts | 71° |
| 2026-04-19 17:03 | 34.74276 | 10.55584 | 2361 ft | 204 kts | 42° |
| 2026-04-19 17:03 | 34.75249 | 10.56771 | 2220 ft | 191 kts | 42° |
| 2026-04-19 17:04 | 34.76170 | 10.57896 | 2074 ft | 181 kts | 42° |
| 2026-04-19 17:04 | 34.77025 | 10.58944 | 2013 ft | 169 kts | 42° |
| 2026-04-19 17:04 | 34.77838 | 10.59946 | 2002 ft | 164 kts | 42° |
| 2026-04-19 17:04 | 34.78649 | 10.60947 | 1987 ft | 161 kts | 42° |
| 2026-04-19 17:05 | 34.79442 | 10.61928 | 1987 ft | 157 kts | 42° |
| 2026-04-19 17:05 | 34.79975 | 10.63015 | 1911 ft | 155 kts | 86° |
| 2026-04-19 17:05 | 34.79313 | 10.63991 | 1588 ft | 171 kts | 155° |
| 2026-04-19 17:05 | 34.78207 | 10.64518 | 1269 ft | 171 kts | 158° |
| 2026-04-19 17:06 | 34.77121 | 10.65124 | 1026 ft | 165 kts | 153° |
| 2026-04-19 17:06 | 34.76119 | 10.65763 | 788 ft | 161 kts | 150° |
| 2026-04-19 17:06 | 34.75199 | 10.66437 | 655 ft | 144 kts | 146° |
| 2026-04-19 17:06 | 34.74397 | 10.67073 | 457 ft | 133 kts | 148° |
| 2026-04-19 17:07 | 34.73626 | 10.67666 | 278 ft | 132 kts | 147° |
| 2026-04-19 17:07 | 34.72850 | 10.68249 | 111 ft | 130 kts | 147° |
| 2026-04-19 17:07 | 34.72146 | 10.68783 | 69 ft | 88 kts | 148° |
| 2026-04-19 17:07 | 34.71933 | 10.68945 | 64 ft | 17 kts | 147° |
| 2026-04-19 17:08 | 34.71860 | 10.68989 | 63 ft | 6 kts | 174° |
| 2026-04-19 17:08 | 34.71861 | 10.69001 | 63 ft | 0 kts | 324° |
| 2026-04-19 17:08 | 34.71867 | 10.68996 | 63 ft | 5 kts | 326° |
| 2026-04-19 17:08 | 34.71954 | 10.68931 | 64 ft | 19 kts | 329° |
| 2026-04-19 17:09 | 34.72078 | 10.68895 | 66 ft | 21 kts | 40° |
| 2026-04-19 17:09 | 34.72163 | 10.69050 | 66 ft | 22 kts | 58° |
| 2026-04-19 17:09 | 34.72262 | 10.69193 | 65 ft | 22 kts | 34° |
| 2026-04-19 17:09 | 34.72351 | 10.69255 | 66 ft | 8 kts | 353° |
| 2026-04-19 17:10 | 34.72392 | 10.69224 | 65 ft | 0 kts | 332° |